Time;durP1;ratioP1;P1;durP2;ratioP2;P2;SDS_P1;SDS_P2;PMS_P1;PMS_P2;Temp;Humidity;BMP_temperature;BMP_pressure;BME280_temperature;BME280_humidity;BME280_pressure;Samples;Min_cycle;Max_cycle;Signal;HPM_P1;HPM_P2
2023/01/26 00:02:04;;;;;;;133.65;31.75;;;-1.40;99.90;;;;;;4975510;28;20033;-68
2023/01/26 00:04:30;;;;;;;108.03;29.02;;;-1.40;99.90;;;;;;4988496;28;20193;-68
2023/01/26 00:06:55;;;;;;;111.38;28.02;;;-1.40;99.90;;;;;;4954969;28;20045;-68
2023/01/26 00:09:21;;;;;;;114.82;27.63;;;-1.40;99.90;;;;;;4988843;28;20574;-68
2023/01/26 00:11:47;;;;;;;112.93;28.10;;;-1.40;99.90;;;;;;4966979;28;20046;-68
2023/01/26 00:14:13;;;;;;;116.68;30.48;;;-1.40;99.90;;;;;;4972019;28;20077;-68
2023/01/26 00:16:39;;;;;;;87.93;22.63;;;-1.40;99.90;;;;;;4982674;28;20128;-68
2023/01/26 00:19:04;;;;;;;121.80;28.85;;;-1.20;99.90;;;;;;4985875;28;20495;-68
2023/01/26 00:21:30;;;;;;;111.90;29.10;;;-1.30;99.90;;;;;;4971319;28;20053;-68
2023/01/26 00:23:56;;;;;;;108.18;28.42;;;-1.50;99.90;;;;;;4987365;28;20057;-69
2023/01/26 00:26:24;;;;;;;121.45;30.75;;;-1.50;99.90;;;;;;4986837;28;20387;-68
2023/01/26 00:28:51;;;;;;;116.32;30.48;;;-1.40;99.90;;;;;;4988028;28;20049;-68
2023/01/26 00:31:22;;;;;;;115.28;29.45;;;-1.50;99.90;;;;;;4989123;28;20108;-68
2023/01/26 00:33:48;;;;;;;142.48;30.17;;;-1.10;99.90;;;;;;4987035;28;20048;-68
2023/01/26 00:36:14;;;;;;;102.32;28.17;;;-1.20;99.90;;;;;;4983032;28;20034;-68
2023/01/26 00:38:40;;;;;;;109.53;26.98;;;-1.50;99.90;;;;;;4989378;28;20046;-68
2023/01/26 00:41:06;;;;;;;124.35;30.95;;;-1.50;99.90;;;;;;4988447;28;20085;-68
2023/01/26 00:43:33;;;;;;;128.30;31.05;;;-1.50;99.90;;;;;;4991277;28;20411;-68
2023/01/26 00:45:58;;;;;;;135.30;32.17;;;-1.40;99.90;;;;;;4971534;28;20042;-68
2023/01/26 00:48:24;;;;;;;152.93;36.22;;;-1.40;99.90;;;;;;4952503;28;20041;-68
2023/01/26 00:50:50;;;;;;;129.68;30.92;;;-1.40;99.90;;;;;;4970635;28;20038;-68
2023/01/26 00:53:16;;;;;;;127.90;31.50;;;-1.40;99.90;;;;;;4968683;28;20039;-68
2023/01/26 00:55:42;;;;;;;140.05;35.45;;;-1.50;99.90;;;;;;4964127;28;20053;-68
2023/01/26 00:58:08;;;;;;;148.32;34.00;;;-1.50;99.90;;;;;;4987205;28;20088;-68
2023/01/26 01:00:36;;;;;;;145.85;36.05;;;-1.50;99.90;;;;;;4966693;28;20104;-68
2023/01/26 01:03:02;;;;;;;124.65;32.25;;;-1.50;99.90;;;;;;4987640;28;20049;-68
2023/01/26 01:05:30;;;;;;;153.07;35.72;;;-1.40;99.90;;;;;;4988168;28;20049;-68
2023/01/26 01:07:56;;;;;;;151.85;37.10;;;-1.50;99.90;;;;;;4977805;28;20057;-68
2023/01/26 01:10:22;;;;;;;149.15;36.53;;;-1.50;99.90;;;;;;4985806;28;20106;-68
2023/01/26 01:12:49;;;;;;;183.15;37.78;;;-1.40;99.90;;;;;;4990322;28;20065;-69
2023/01/26 01:15:15;;;;;;;126.40;30.52;;;-1.40;99.90;;;;;;4984769;28;20116;-68
2023/01/26 01:17:41;;;;;;;156.70;33.35;;;-1.40;99.90;;;;;;4980314;28;20106;-68
2023/01/26 01:20:08;;;;;;;162.68;35.80;;;-1.40;99.90;;;;;;4982829;28;20096;-68
2023/01/26 01:22:35;;;;;;;147.13;34.72;;;-1.40;99.90;;;;;;4988023;28;20045;-68
2023/01/26 01:25:01;;;;;;;153.98;33.03;;;-1.40;99.90;;;;;;4988601;28;20088;-68
2023/01/26 01:27:26;;;;;;;150.82;34.67;;;-1.40;99.90;;;;;;4982098;28;20070;-69
2023/01/26 01:29:52;;;;;;;164.23;36.42;;;-1.40;99.90;;;;;;4986386;28;20498;-69
2023/01/26 01:32:19;;;;;;;132.90;30.85;;;-1.30;99.90;;;;;;4991198;28;20038;-68
2023/01/26 01:34:48;;;;;;;101.72;25.33;;;-1.30;99.90;;;;;;4972341;28;20202;-68
2023/01/26 01:37:15;;;;;;;119.22;30.17;;;-1.30;99.90;;;;;;4974202;28;20041;-68
2023/01/26 01:39:41;;;;;;;106.82;25.85;;;-1.10;99.90;;;;;;4989333;28;20390;-69
2023/01/26 01:42:07;;;;;;;131.70;30.60;;;-1.30;99.90;;;;;;4992339;28;20044;-68
2023/01/26 01:44:37;;;;;;;106.70;26.70;;;-1.20;99.90;;;;;;4992511;28;20038;-68
2023/01/26 01:47:09;;;;;;;118.93;27.23;;;-1.30;99.90;;;;;;4970082;28;20116;-68
2023/01/26 01:49:45;;;;;;;104.83;26.73;;;-1.40;99.90;;;;;;5001439;28;20034;-69
2023/01/26 01:52:25;;;;;;;94.60;24.60;;;-1.30;99.90;;;;;;4988254;28;20804;-69
2023/01/26 01:55:09;;;;;;;116.30;29.02;;;-1.30;99.90;;;;;;4994427;28;20277;-68
2023/01/26 01:57:52;;;;;;;129.30;30.58;;;-1.30;99.90;;;;;;5005993;28;20045;-68
2023/01/26 02:00:21;;;;;;;122.20;29.67;;;-1.30;99.90;;;;;;4990117;28;20069;-68
2023/01/26 02:05:46;;;;;;;118.85;28.95;;;-1.30;99.90;;;;;;4989149;28;20038;-68
2023/01/26 02:08:15;;;;;;;109.80;27.95;;;-1.30;99.90;;;;;;4989117;28;20446;-68
2023/01/26 02:10:45;;;;;;;115.38;28.58;;;-1.30;99.90;;;;;;5002831;28;20042;-68
2023/01/26 02:13:11;;;;;;;129.80;30.20;;;-1.00;99.90;;;;;;4977870;28;20104;-69
2023/01/26 02:15:37;;;;;;;105.30;27.80;;;-1.30;99.90;;;;;;4974063;28;20126;-68
2023/01/26 02:18:04;;;;;;;89.95;25.23;;;-1.30;99.90;;;;;;4975584;28;20124;-69
2023/01/26 02:20:42;;;;;;;128.90;31.20;;;-1.30;99.90;;;;;;4989112;28;20108;-68
2023/01/26 02:23:27;;;;;;;121.43;29.83;;;-1.30;99.90;;;;;;4989551;28;20045;-68
2023/01/26 02:25:52;;;;;;;122.95;27.77;;;-1.30;99.90;;;;;;4975579;28;20051;-68
2023/01/26 02:28:21;;;;;;;113.15;24.85;;;-1.30;99.90;;;;;;4982946;28;20049;-68
2023/01/26 02:30:47;;;;;;;122.75;27.52;;;-0.80;99.90;;;;;;4990098;28;20535;-68
2023/01/26 02:33:22;;;;;;;133.25;27.60;;;-1.20;99.90;;;;;;4989569;28;20045;-68
2023/01/26 02:35:48;;;;;;;92.40;23.58;;;-1.20;99.90;;;;;;4969407;28;20061;-69
2023/01/26 02:38:15;;;;;;;125.65;28.80;;;-1.20;99.90;;;;;;4975288;28;20665;-69
2023/01/26 02:40:52;;;;;;;111.07;26.80;;;-1.10;99.90;;;;;;4970306;28;20080;-69
2023/01/26 02:43:18;;;;;;;96.72;24.45;;;-1.10;99.90;;;;;;4990192;28;20041;-69
2023/01/26 02:45:44;;;;;;;88.88;22.67;;;-1.10;99.90;;;;;;4985785;28;20429;-69
2023/01/26 02:48:09;;;;;;;77.35;20.50;;;-1.10;99.90;;;;;;4972259;28;20037;-69
2023/01/26 02:50:35;;;;;;;88.35;23.52;;;-1.10;99.90;;;;;;4991715;28;20582;-69
2023/01/26 02:53:02;;;;;;;98.47;25.20;;;-1.10;99.90;;;;;;4987269;28;20092;-69
2023/01/26 02:55:28;;;;;;;85.97;20.70;;;-1.10;99.90;;;;;;4976284;28;20165;-68
2023/01/26 02:58:01;;;;;;;78.18;19.65;;;-1.10;99.90;;;;;;4993007;28;20530;-69
2023/01/26 03:00:35;;;;;;;88.57;20.73;;;-1.10;99.90;;;;;;4995315;28;20248;-68
2023/01/26 03:03:11;;;;;;;70.53;19.38;;;-1.10;99.90;;;;;;4994099;28;20045;-69
2023/01/26 03:05:36;;;;;;;75.18;19.42;;;-0.50;99.90;;;;;;5000332;28;20054;-68
2023/01/26 03:08:04;;;;;;;92.45;23.85;;;-0.70;99.90;;;;;;4973407;28;20639;-68
2023/01/26 03:10:31;;;;;;;84.88;21.80;;;-1.00;99.90;;;;;;4972738;28;20033;-69
2023/01/26 03:12:57;;;;;;;70.07;18.80;;;-1.00;99.90;;;;;;4987510;28;20101;-68
2023/01/26 03:15:41;;;;;;;72.40;20.52;;;-1.00;99.90;;;;;;4987854;28;20053;-68
2023/01/26 03:29:12;;;;;;;66.13;19.67;;;-1.00;99.90;;;;;;4988674;28;20038;-68
2023/01/26 03:31:38;;;;;;;55.88;17.67;;;-0.60;99.90;;;;;;4987010;28;20506;-68
2023/01/26 03:34:04;;;;;;;60.80;17.83;;;-1.00;99.90;;;;;;4969898;28;20046;-68
2023/01/26 03:36:32;;;;;;;75.60;20.00;;;-1.00;99.90;;;;;;4986533;28;20344;-68
2023/01/26 03:38:58;;;;;;;60.45;17.17;;;-1.00;99.90;;;;;;4957333;28;20415;-68
2023/01/26 03:57:49;;;;;;;60.25;14.90;;;-0.90;99.90;;;;;;4985259;28;20503;-69
2023/01/26 04:00:14;;;;;;;44.78;12.40;;;-0.80;99.90;;;;;;4973375;28;20033;-69
2023/01/26 04:08:28;;;;;;;44.17;14.00;;;-0.80;99.90;;;;;;4985137;28;20462;-69
2023/01/26 04:10:54;;;;;;;56.78;13.52;;;-0.80;99.90;;;;;;4974223;28;20056;-69
2023/01/26 04:21:37;;;;;;;39.20;11.45;;;-0.70;99.90;;;;;;4987056;28;20042;-70
2023/01/26 04:24:13;;;;;;;39.33;11.65;;;-0.70;99.90;;;;;;4971297;28;20042;-70
2023/01/26 04:26:40;;;;;;;40.30;12.45;;;-0.70;99.90;;;;;;4979508;28;20490;-70
2023/01/26 04:29:15;;;;;;;46.75;14.45;;;-0.70;99.90;;;;;;4988232;28;20083;-70
2023/01/26 04:31:41;;;;;;;41.05;12.40;;;-0.40;99.90;;;;;;4984633;28;20041;-70
2023/01/26 04:34:11;;;;;;;35.50;10.30;;;-0.60;99.90;;;;;;4968780;28;20038;-70
2023/01/26 04:36:37;;;;;;;37.88;12.18;;;-0.70;99.90;;;;;;4988072;28;20077;-70
2023/01/26 04:39:03;;;;;;;30.58;12.13;;;-0.40;99.90;;;;;;4984105;28;20037;-70
2023/01/26 04:41:30;;;;;;;36.92;11.32;;;-0.70;99.90;;;;;;4988241;28;20121;-70
2023/01/26 04:43:56;;;;;;;37.13;10.90;;;-0.60;99.90;;;;;;4984288;28;20399;-70
2023/01/26 04:46:21;;;;;;;37.05;11.68;;;-0.60;99.90;;;;;;4985275;28;20133;-70
2023/01/26 04:48:47;;;;;;;41.80;11.20;;;-0.60;99.90;;;;;;4981292;28;20565;-70
2023/01/26 04:51:19;;;;;;;39.25;12.23;;;-0.60;99.90;;;;;;5004370;28;20065;-70
2023/01/26 04:53:46;;;;;;;29.27;10.55;;;-0.60;99.90;;;;;;4971412;28;20387;-70
2023/01/26 04:56:25;;;;;;;41.70;12.15;;;-0.20;99.90;;;;;;4987905;28;20048;-70
2023/01/26 04:58:52;;;;;;;33.97;11.05;;;-0.50;99.90;;;;;;4984579;28;20050;-70
2023/01/26 05:01:18;;;;;;;35.83;10.43;;;-0.60;99.90;;;;;;4986999;28;20334;-70
2023/01/26 05:03:44;;;;;;;34.10;9.82;;;-0.60;99.90;;;;;;4984714;28;20064;-70
2023/01/26 05:06:10;;;;;;;27.05;8.95;;;-0.60;99.90;;;;;;4987659;28;20041;-70
2023/01/26 05:08:37;;;;;;;39.30;10.88;;;-0.60;99.90;;;;;;4987442;28;20057;-70
2023/01/26 05:11:04;;;;;;;37.53;11.20;;;-0.60;99.90;;;;;;4951353;28;1149455;-70
2023/01/26 05:13:30;;;;;;;29.83;10.40;;;-0.50;99.90;;;;;;4991422;28;20048;-69
2023/01/26 05:15:55;;;;;;;32.83;9.38;;;-0.50;99.90;;;;;;4974720;28;20038;-70
2023/01/26 05:18:21;;;;;;;39.40;11.07;;;-0.50;99.90;;;;;;4959887;28;20045;-69
2023/01/26 05:20:47;;;;;;;38.67;11.52;;;-0.30;99.90;;;;;;4956687;28;20392;-69
2023/01/26 05:23:13;;;;;;;36.45;10.23;;;-0.50;99.90;;;;;;4989550;28;20073;-70
2023/01/26 05:25:38;;;;;;;31.17;10.05;;;-0.50;99.90;;;;;;4970813;28;20095;-70
2023/01/26 05:28:04;;;;;;;34.08;10.70;;;-0.50;99.90;;;;;;4973864;28;20125;-70
2023/01/26 05:30:30;;;;;;;30.90;10.70;;;-0.50;99.90;;;;;;4994801;28;20129;-69
2023/01/26 05:33:01;;;;;;;33.40;10.30;;;-0.50;99.90;;;;;;4991762;28;20046;-70
2023/01/26 05:35:27;;;;;;;37.17;12.15;;;-0.50;99.90;;;;;;4971797;28;20042;-69
2023/01/26 05:37:54;;;;;;;35.13;10.40;;;-0.20;99.90;;;;;;4960931;28;20053;-70
2023/01/26 05:40:20;;;;;;;36.13;10.80;;;-0.20;99.90;;;;;;4990918;28;20088;-69
2023/01/26 05:42:46;;;;;;;35.80;11.40;;;-0.40;99.90;;;;;;4989545;28;20057;-70
2023/01/26 05:45:12;;;;;;;37.42;11.25;;;-0.20;99.90;;;;;;4968788;28;20479;-69
2023/01/26 05:47:38;;;;;;;36.20;11.75;;;-0.40;99.90;;;;;;4972496;28;20045;-69
2023/01/26 05:50:04;;;;;;;47.10;11.52;;;-0.40;99.90;;;;;;4991133;28;20046;-70
2023/01/26 05:52:31;;;;;;;42.67;12.63;;;-0.40;99.90;;;;;;4991904;28;20038;-69
2023/01/26 05:54:57;;;;;;;40.72;11.35;;;-0.40;99.90;;;;;;4975247;28;20439;-69
2023/01/26 05:57:22;;;;;;;43.83;13.20;;;-0.40;99.90;;;;;;4975681;28;20334;-69
2023/01/26 05:59:48;;;;;;;40.35;12.80;;;-0.40;99.90;;;;;;4955819;28;20070;-69
2023/01/26 06:02:14;;;;;;;39.53;11.68;;;-0.20;99.90;;;;;;4969532;28;20044;-69
2023/01/26 06:04:40;;;;;;;43.10;12.50;;;-0.40;99.90;;;;;;4990768;28;20533;-69
2023/01/26 06:07:05;;;;;;;42.05;12.40;;;-0.40;99.90;;;;;;4972017;28;20394;-70
2023/01/26 06:09:32;;;;;;;43.70;11.88;;;-0.40;99.90;;;;;;4974833;28;20050;-69
2023/01/26 06:11:57;;;;;;;38.10;11.73;;;-0.40;99.90;;;;;;4980311;28;20053;-69
2023/01/26 06:14:23;;;;;;;35.00;11.10;;;-0.40;99.90;;;;;;4968290;28;20030;-69
2023/01/26 06:16:51;;;;;;;31.67;10.18;;;-0.40;99.90;;;;;;4970359;28;20505;-69
2023/01/26 06:19:16;;;;;;;39.05;11.35;;;-0.30;99.90;;;;;;4992440;28;20046;-70
2023/01/26 06:21:42;;;;;;;39.30;11.38;;;-0.30;99.90;;;;;;4974573;28;20052;-70
2023/01/26 06:24:08;;;;;;;38.88;11.63;;;-0.30;99.90;;;;;;4957482;28;20407;-69
2023/01/26 06:26:34;;;;;;;52.78;12.43;;;-0.30;99.90;;;;;;4973443;28;20036;-70
2023/01/26 06:28:59;;;;;;;33.28;11.20;;;-0.20;99.90;;;;;;4984357;28;20842;-70
2023/01/26 06:31:28;;;;;;;47.78;12.70;;;-0.30;99.90;;;;;;4973660;28;20046;-70
2023/01/26 06:33:54;;;;;;;56.17;12.65;;;-0.30;99.90;;;;;;4971732;28;20041;-70
2023/01/26 06:36:20;;;;;;;44.63;12.38;;;-0.20;99.90;;;;;;4990098;28;20057;-69
2023/01/26 06:38:51;;;;;;;46.67;13.35;;;-0.30;99.90;;;;;;4989348;28;20034;-70
2023/01/26 06:41:17;;;;;;;46.70;12.27;;;0.00;99.90;;;;;;4989632;28;20051;-70
2023/01/26 06:43:47;;;;;;;43.72;13.15;;;-0.30;99.90;;;;;;4985151;28;20084;-70
2023/01/26 06:46:14;;;;;;;60.28;14.40;;;-0.30;99.90;;;;;;4989262;28;20045;-70
2023/01/26 06:48:39;;;;;;;54.78;14.15;;;-0.20;99.90;;;;;;4985638;28;20381;-70
2023/01/26 06:51:14;;;;;;;54.05;13.45;;;-0.20;99.90;;;;;;4974156;28;20042;-70
2023/01/26 06:53:43;;;;;;;66.47;14.20;;;-0.20;99.90;;;;;;4970578;28;20042;-70
2023/01/26 06:56:08;;;;;;;43.03;11.35;;;-0.30;99.90;;;;;;4989341;28;20071;-70
2023/01/26 06:58:34;;;;;;;60.13;14.25;;;-0.20;99.90;;;;;;4987270;28;20110;-70
2023/01/26 07:01:00;;;;;;;77.10;15.30;;;0.00;99.90;;;;;;4975415;28;20077;-70
2023/01/26 07:03:26;;;;;;;58.70;14.88;;;0.00;99.90;;;;;;4989869;28;20094;-70
2023/01/26 07:05:51;;;;;;;76.70;15.02;;;-0.20;99.90;;;;;;4963277;28;20639;-70
2023/01/26 07:08:17;;;;;;;68.68;15.57;;;-0.20;99.90;;;;;;4968865;28;20034;-70
2023/01/26 07:10:43;;;;;;;75.43;16.45;;;-0.20;99.90;;;;;;4989685;28;20470;-70
2023/01/26 07:13:09;;;;;;;71.82;15.73;;;-0.20;99.90;;;;;;4974735;28;20042;-70
2023/01/26 07:15:35;;;;;;;76.20;15.02;;;-0.20;99.90;;;;;;4968932;28;20045;-70
2023/01/26 07:18:00;;;;;;;63.53;14.35;;;-0.20;99.90;;;;;;4980861;28;20561;-70
2023/01/26 07:20:26;;;;;;;90.07;17.08;;;-0.20;99.90;;;;;;4965874;28;20041;-70
2023/01/26 07:22:52;;;;;;;104.53;17.65;;;-0.20;99.90;;;;;;4972110;28;20049;-70
2023/01/26 07:25:18;;;;;;;71.80;16.63;;;-0.10;99.90;;;;;;4987004;28;20046;-70
2023/01/26 07:27:44;;;;;;;85.38;17.20;;;-0.10;99.90;;;;;;4993428;28;20976;-70
2023/01/26 07:30:13;;;;;;;94.03;18.60;;;-0.10;99.90;;;;;;4989695;28;20042;-70
2023/01/26 07:32:39;;;;;;;93.15;17.88;;;-0.10;99.90;;;;;;4996159;28;20502;-70
2023/01/26 07:35:06;;;;;;;92.18;17.17;;;0.00;99.90;;;;;;4968943;28;20056;-70
2023/01/26 07:37:32;;;;;;;77.78;16.70;;;0.00;99.90;;;;;;4972251;28;20683;-70
2023/01/26 07:39:58;;;;;;;103.70;18.80;;;0.00;99.90;;;;;;4976519;28;20030;-70
2023/01/26 07:42:23;;;;;;;107.85;19.10;;;0.10;99.90;;;;;;4974417;28;20092;-70
2023/01/26 07:44:49;;;;;;;103.28;19.58;;;0.30;99.90;;;;;;4968359;28;20097;-71
2023/01/26 07:47:15;;;;;;;91.32;19.48;;;0.10;99.90;;;;;;4971966;28;20041;-71
2023/01/26 07:49:41;;;;;;;100.30;18.38;;;0.10;99.90;;;;;;4959064;28;20195;-70
2023/01/26 07:52:08;;;;;;;97.22;18.73;;;0.10;99.90;;;;;;4987667;28;20037;-71
2023/01/26 07:54:33;;;;;;;92.95;18.88;;;0.10;99.90;;;;;;4956534;28;20108;-70
2023/01/26 07:56:59;;;;;;;85.28;18.92;;;0.20;99.90;;;;;;4982873;28;20486;-70
2023/01/26 07:59:25;;;;;;;107.53;18.75;;;0.20;99.90;;;;;;4968412;28;20046;-70
2023/01/26 08:01:51;;;;;;;118.10;20.40;;;0.20;99.90;;;;;;4988806;28;20061;-70
2023/01/26 08:04:17;;;;;;;102.47;19.33;;;0.30;99.90;;;;;;4963275;28;20045;-71
2023/01/26 08:06:43;;;;;;;99.45;18.40;;;0.30;99.90;;;;;;4987693;28;20056;-70
2023/01/26 08:09:09;;;;;;;107.22;20.67;;;0.30;99.90;;;;;;4971462;28;20483;-71
2023/01/26 08:11:35;;;;;;;111.80;22.17;;;0.30;99.90;;;;;;4971417;28;20061;-71
2023/01/26 08:14:04;;;;;;;99.25;18.95;;;0.40;99.90;;;;;;4972292;28;20045;-71
2023/01/26 08:16:36;;;;;;;112.40;20.38;;;0.40;99.90;;;;;;4972459;28;20040;-70
2023/01/26 08:19:02;;;;;;;93.15;20.40;;;0.40;99.90;;;;;;4987006;28;20412;-70
2023/01/26 08:21:28;;;;;;;79.90;17.48;;;0.40;99.90;;;;;;4969187;28;20042;-70
2023/01/26 08:23:54;;;;;;;118.53;20.05;;;0.50;99.90;;;;;;4986990;28;20049;-70
2023/01/26 08:26:20;;;;;;;89.97;17.85;;;0.50;99.90;;;;;;4956768;28;20029;-71
2023/01/26 08:28:46;;;;;;;78.85;18.30;;;0.50;99.90;;;;;;4989123;28;20067;-70
2023/01/26 08:31:19;;;;;;;98.03;17.95;;;0.50;99.90;;;;;;4969829;28;20040;-70
2023/01/26 08:33:46;;;;;;;86.03;18.33;;;0.50;99.90;;;;;;4973206;28;20426;-70
2023/01/26 08:36:14;;;;;;;67.65;15.48;;;0.50;99.90;;;;;;4987606;28;20034;-70
2023/01/26 08:38:43;;;;;;;81.60;18.25;;;0.60;99.90;;;;;;5002644;28;20049;-70
2023/01/26 08:41:10;;;;;;;91.85;18.17;;;0.60;99.90;;;;;;4973964;28;20091;-70
2023/01/26 08:43:39;;;;;;;76.10;15.70;;;0.70;99.90;;;;;;4964351;28;20100;-70
2023/01/26 08:46:05;;;;;;;74.30;16.00;;;0.70;99.90;;;;;;4974019;28;20037;-70
2023/01/26 08:48:31;;;;;;;53.28;14.20;;;0.80;99.90;;;;;;4971893;28;20057;-70
2023/01/26 08:51:02;;;;;;;72.65;16.52;;;0.90;99.90;;;;;;4976707;28;20060;-70
2023/01/26 08:53:34;;;;;;;78.65;18.00;;;0.90;99.90;;;;;;4976098;28;20583;-70
2023/01/26 08:56:01;;;;;;;62.40;14.48;;;1.00;99.90;;;;;;4976378;28;20093;-70
2023/01/26 08:58:28;;;;;;;72.93;15.50;;;1.00;99.90;;;;;;4961567;28;20553;-70
2023/01/26 09:00:54;;;;;;;58.33;13.68;;;1.10;99.90;;;;;;4943799;28;20076;-70
2023/01/26 09:03:20;;;;;;;63.28;13.15;;;1.10;99.90;;;;;;4975701;28;20050;-70
2023/01/26 09:05:46;;;;;;;69.85;14.98;;;1.00;99.90;;;;;;4974825;28;20399;-70
2023/01/26 09:08:12;;;;;;;51.83;14.02;;;1.00;99.90;;;;;;4974837;28;20034;-70
2023/01/26 09:10:38;;;;;;;83.53;14.85;;;0.90;99.90;;;;;;4972684;28;20053;-70
2023/01/26 09:13:04;;;;;;;66.25;14.27;;;1.00;99.90;;;;;;4956140;28;20053;-70
2023/01/26 09:15:30;;;;;;;64.15;13.13;;;1.00;99.90;;;;;;4956196;28;20069;-70
2023/01/26 09:17:56;;;;;;;51.70;14.05;;;1.00;99.90;;;;;;4972353;28;20121;-70
2023/01/26 09:20:22;;;;;;;72.28;12.82;;;1.00;99.90;;;;;;4973861;28;20076;-70
2023/01/26 09:22:48;;;;;;;58.47;14.13;;;1.00;99.90;;;;;;4983739;28;20042;-70
2023/01/26 09:25:14;;;;;;;70.03;15.70;;;1.00;99.90;;;;;;4955227;28;20069;-71
2023/01/26 09:27:43;;;;;;;75.55;16.70;;;1.00;99.90;;;;;;4966915;28;20046;-70
2023/01/26 09:30:10;;;;;;;70.15;13.63;;;1.10;99.90;;;;;;4973414;28;20402;-70
2023/01/26 09:32:36;;;;;;;79.88;12.85;;;1.10;99.90;;;;;;4974866;28;20044;-70
2023/01/26 09:35:04;;;;;;;61.00;12.40;;;1.20;99.90;;;;;;4957371;28;20829;-70
2023/01/26 09:37:30;;;;;;;63.30;13.70;;;1.50;99.90;;;;;;4957515;28;20539;-70
2023/01/26 09:39:56;;;;;;;49.75;13.57;;;1.80;99.90;;;;;;4973369;28;20041;-70
2023/01/26 09:42:43;;;;;;;68.05;13.73;;;2.70;99.90;;;;;;4957241;28;20037;-71
2023/01/26 09:45:12;;;;;;;92.78;17.65;;;3.70;99.90;;;;;;4973620;28;20125;-70
2023/01/26 09:47:40;;;;;;;50.53;10.50;;;4.80;99.90;;;;;;4976242;28;20042;-70
2023/01/26 09:50:20;;;;;;;37.85;7.70;;;5.60;99.90;;;;;;4980937;28;20104;-70
2023/01/26 09:53:01;;;;;;;28.73;8.18;;;5.90;99.90;;;;;;4976147;28;20135;-70
2023/01/26 09:55:27;;;;;;;33.42;7.30;;;5.80;99.90;;;;;;4992396;28;20145;-70
2023/01/26 09:58:11;;;;;;;27.80;7.63;;;6.00;99.90;;;;;;4995489;28;20048;-70
2023/01/26 10:01:04;;;;;;;22.80;7.03;;;5.90;99.90;;;;;;4994903;28;20045;-69
2023/01/26 10:04:04;;;;;;;32.33;7.28;;;5.60;99.90;;;;;;4959469;28;20041;-69
2023/01/26 10:06:31;;;;;;;36.47;7.47;;;5.70;99.90;;;;;;4992488;28;20049;-69
2023/01/26 10:09:22;;;;;;;30.67;6.68;;;5.80;99.90;;;;;;5004509;28;20065;-69
2023/01/26 10:11:51;;;;;;;33.63;6.90;;;6.20;99.90;;;;;;4978217;28;20107;-69
2023/01/26 10:14:33;;;;;;;28.27;6.22;;;6.20;99.90;;;;;;4994920;28;20045;-69
2023/01/26 10:17:14;;;;;;;21.23;5.60;;;6.20;99.90;;;;;;5009688;28;20048;-69
2023/01/26 10:19:51;;;;;;;26.77;6.13;;;6.20;99.90;;;;;;4994821;28;20045;-69
2023/01/26 10:22:37;;;;;;;31.70;5.32;;;6.20;99.90;;;;;;4993687;28;20037;-69
2023/01/26 10:25:28;;;;;;;26.92;5.68;;;6.20;99.90;;;;;;4991765;28;20038;-69
2023/01/26 10:27:56;;;;;;;20.58;4.55;;;6.10;99.90;;;;;;4994879;28;20462;-69
2023/01/26 10:30:22;;;;;;;26.77;5.20;;;6.10;99.90;;;;;;4962791;28;20041;-69
2023/01/26 10:32:51;;;;;;;20.08;5.30;;;6.20;99.90;;;;;;4963892;28;20108;-69
2023/01/26 10:35:20;;;;;;;29.65;5.72;;;6.10;99.90;;;;;;4991289;28;20068;-69
2023/01/26 10:37:46;;;;;;;22.98;5.22;;;6.20;99.90;;;;;;4993094;28;20056;-69
2023/01/26 10:40:13;;;;;;;26.52;4.63;;;6.30;99.90;;;;;;4985887;28;20491;-69
2023/01/26 10:42:39;;;;;;;26.98;5.28;;;6.50;99.90;;;;;;4994566;28;20092;-69
2023/01/26 10:45:27;;;;;;;31.15;5.47;;;6.50;99.90;;;;;;4994330;28;20042;-69
2023/01/26 10:48:18;;;;;;;21.83;6.25;;;6.50;99.90;;;;;;4994175;28;20042;-69
2023/01/26 10:50:46;;;;;;;25.92;5.45;;;6.60;99.90;;;;;;4988709;28;20053;-69
2023/01/26 10:53:28;;;;;;;26.92;5.40;;;6.50;99.90;;;;;;4995182;28;20442;-69
2023/01/26 10:56:02;;;;;;;24.77;5.40;;;6.50;99.90;;;;;;4993339;28;20120;-69
2023/01/26 10:58:51;;;;;;;21.08;4.93;;;6.40;99.90;;;;;;4994063;28;20045;-69
2023/01/26 11:01:21;;;;;;;21.15;4.65;;;6.40;99.90;;;;;;4994216;28;20029;-69
2023/01/26 11:04:11;;;;;;;25.05;4.68;;;6.60;99.90;;;;;;4993116;28;20060;-69
2023/01/26 11:06:37;;;;;;;21.50;4.65;;;6.60;99.90;;;;;;4993389;28;20088;-69
2023/01/26 11:09:26;;;;;;;38.88;5.18;;;6.50;99.90;;;;;;4992809;28;20042;-69
2023/01/26 11:12:02;;;;;;;25.83;5.07;;;6.40;99.90;;;;;;4991922;28;20525;-69
2023/01/26 11:14:30;;;;;;;17.33;4.30;;;6.50;99.90;;;;;;4993940;28;20034;-68
2023/01/26 11:17:20;;;;;;;22.15;5.03;;;6.70;99.90;;;;;;4993856;28;20080;-68
2023/01/26 11:20:26;;;;;;;20.90;4.75;;;6.80;99.90;;;;;;4993660;28;20387;-69
2023/01/26 11:23:18;;;;;;;20.67;4.43;;;6.70;99.90;;;;;;4994138;28;20038;-69
2023/01/26 11:26:15;;;;;;;19.08;4.43;;;6.70;99.90;;;;;;4993195;28;20042;-68
2023/01/26 11:29:04;;;;;;;17.52;4.03;;;6.80;99.90;;;;;;4993090;28;20041;-68
2023/01/26 11:31:37;;;;;;;24.60;4.43;;;6.70;99.90;;;;;;4993635;28;20051;-68
2023/01/26 11:34:06;;;;;;;19.58;4.60;;;6.60;99.90;;;;;;4994042;28;20042;-69
2023/01/26 11:37:03;;;;;;;17.70;4.68;;;6.50;99.90;;;;;;5011244;28;20122;-69
2023/01/26 11:39:53;;;;;;;19.98;3.92;;;6.50;99.90;;;;;;5009775;28;20541;-68
2023/01/26 11:42:22;;;;;;;18.58;4.30;;;6.50;99.90;;;;;;4993649;28;20034;-69
2023/01/26 11:45:15;;;;;;;18.67;3.28;;;6.50;99.90;;;;;;4993063;28;20521;-69
2023/01/26 11:48:08;;;;;;;14.95;4.00;;;6.50;99.90;;;;;;4993365;28;20038;-69
2023/01/26 11:50:46;;;;;;;19.15;4.68;;;6.50;99.90;;;;;;4993251;28;20395;-69
2023/01/26 11:53:27;;;;;;;21.85;3.78;;;6.50;99.90;;;;;;4992579;28;20037;-69
2023/01/26 11:56:17;;;;;;;15.15;3.40;;;6.50;99.90;;;;;;4992613;28;20065;-69
2023/01/26 11:58:56;;;;;;;21.38;3.97;;;6.40;99.90;;;;;;4995905;28;20095;-69
2023/01/26 12:01:27;;;;;;;23.33;4.03;;;6.40;99.90;;;;;;4992681;28;20038;-69
2023/01/26 12:03:55;;;;;;;22.00;3.97;;;6.40;99.90;;;;;;5002309;28;20037;-69
2023/01/26 12:06:46;;;;;;;25.02;3.83;;;6.50;99.90;;;;;;4978678;28;21142;-69
2023/01/26 12:09:22;;;;;;;17.80;3.20;;;6.50;99.90;;;;;;4976958;28;20117;-69
2023/01/26 12:11:59;;;;;;;16.50;3.80;;;6.50;99.90;;;;;;4974114;28;20061;-69
2023/01/26 12:14:43;;;;;;;15.13;2.70;;;6.60;99.90;;;;;;4976920;28;20034;-69
2023/01/26 12:17:46;;;;;;;21.35;3.65;;;6.70;99.90;;;;;;4976624;28;20242;-69
2023/01/26 12:20:27;;;;;;;;;;;6.80;99.90;;;;;;4977735;28;20651;-69
2023/01/26 12:23:07;;;;;;;18.95;4.03;;;6.90;99.90;;;;;;4992544;28;19976;-69
2023/01/26 12:25:45;;;;;;;20.70;3.30;;;7.00;99.90;;;;;;4975884;28;20048;-69
2023/01/26 12:28:11;;;;;;;16.90;3.33;;;7.10;99.90;;;;;;4975494;28;20100;-69
2023/01/26 12:31:03;;;;;;;13.23;3.53;;;7.20;99.90;;;;;;4973748;28;20038;-69
2023/01/26 12:33:31;;;;;;;16.13;3.05;;;7.20;99.90;;;;;;4976758;28;20129;-70
2023/01/26 12:35:57;;;;;;;21.23;4.07;;;7.20;99.90;;;;;;4971375;28;20046;-69
2023/01/26 12:39:11;;;;;;;18.98;2.97;;;7.20;99.90;;;;;;4978130;28;20526;-70
2023/01/26 12:42:05;;;;;;;21.73;3.63;;;7.20;99.90;;;;;;4979533;28;20069;-70
2023/01/26 12:44:39;;;;;;;14.43;2.92;;;7.20;99.90;;;;;;4988335;28;20046;-70
2023/01/26 12:47:14;;;;;;;8.27;2.22;;;7.20;99.90;;;;;;4989466;28;20100;-69
2023/01/26 12:50:08;;;;;;;15.35;3.92;;;7.30;99.90;;;;;;4994828;28;20041;-69
2023/01/26 12:52:42;;;;;;;17.13;5.20;;;7.20;99.90;;;;;;4995641;28;20043;-70
2023/01/26 12:55:44;;;;;;;33.20;7.22;;;7.10;99.90;;;;;;4991967;28;20042;-70
2023/01/26 12:58:23;;;;;;;35.47;7.18;;;7.10;99.90;;;;;;4956323;28;20570;-70
2023/01/26 13:00:59;;;;;;;16.10;4.18;;;7.10;99.90;;;;;;4972481;28;20057;-69
2023/01/26 13:03:29;;;;;;;15.93;3.45;;;7.10;99.90;;;;;;4955216;28;20459;-69
2023/01/26 13:06:03;;;;;;;18.52;3.05;;;7.10;99.90;;;;;;4971213;28;20042;-69
2023/01/26 13:08:31;;;;;;;20.05;3.20;;;7.10;99.90;;;;;;4966858;28;20058;-70
2023/01/26 13:11:05;;;;;;;12.38;2.90;;;7.00;99.90;;;;;;4963804;28;20045;-69
2023/01/26 13:13:55;;;;;;;18.45;2.95;;;6.90;99.90;;;;;;4974538;28;20451;-69
2023/01/26 13:16:27;;;;;;;;;;;6.90;99.90;;;;;;4990928;28;20048;-69
2023/01/26 13:18:59;;;;;;;14.80;2.75;;;6.80;99.90;;;;;;4988320;28;19925;-69
2023/01/26 13:21:37;;;;;;;13.05;3.20;;;6.80;99.90;;;;;;4990466;28;20112;-69
2023/01/26 13:24:21;;;;;;;7.50;3.17;;;6.80;99.90;;;;;;4990873;28;20534;-69
2023/01/26 13:27:32;;;;;;;17.30;2.97;;;6.90;99.90;;;;;;4989551;28;20060;-70
2023/01/26 13:30:00;;;;;;;13.05;2.92;;;7.10;99.90;;;;;;5010784;28;20053;-70
2023/01/26 13:32:26;;;;;;;14.45;2.53;;;7.30;99.90;;;;;;5012647;28;20074;-69
2023/01/26 13:35:02;;;;;;;15.48;2.88;;;7.40;99.90;;;;;;5013093;28;20049;-69
2023/01/26 13:37:36;;;;;;;16.83;3.50;;;7.50;99.90;;;;;;5010714;28;20045;-69